Time;durP1;ratioP1;P1;durP2;ratioP2;P2;SDS_P1;SDS_P2;PMS_P1;PMS_P2;Temp;Humidity;BMP_temperature;BMP_pressure;BME280_temperature;BME280_humidity;BME280_pressure;Samples;Min_cycle;Max_cycle;Signal;HPM_P1;HPM_P2
2022/08/09 00:00:05;;;;;;;7.82;3.72;;;14.90;99.90;;;;;;5017833;28;20449;-86
2022/08/09 00:02:31;;;;;;;9.60;3.67;;;14.90;99.90;;;;;;5015000;28;20038;-86
2022/08/09 00:04:56;;;;;;;10.45;3.92;;;14.80;99.90;;;;;;5007541;28;20048;-86
2022/08/09 00:07:22;;;;;;;8.75;3.83;;;14.70;99.90;;;;;;5012884;28;20025;-86
2022/08/09 00:09:47;;;;;;;10.77;3.60;;;14.60;99.90;;;;;;5012845;28;20476;-86
2022/08/09 00:12:13;;;;;;;9.35;4.35;;;14.60;99.90;;;;;;5020073;28;20032;-86
2022/08/09 00:14:39;;;;;;;8.75;3.60;;;14.50;99.90;;;;;;5013181;28;20037;-85
2022/08/09 00:17:05;;;;;;;8.45;3.75;;;14.40;99.90;;;;;;4999867;28;20097;-86
2022/08/09 00:19:31;;;;;;;9.05;4.05;;;14.40;99.90;;;;;;5015228;28;20053;-86
2022/08/09 00:21:57;;;;;;;8.85;3.95;;;14.40;99.90;;;;;;5010587;28;20034;-86
2022/08/09 00:24:24;;;;;;;8.38;3.70;;;14.50;99.90;;;;;;5013732;28;20065;-86
2022/08/09 00:26:50;;;;;;;9.13;3.95;;;14.50;99.90;;;;;;5013298;28;20034;-86
2022/08/09 00:29:16;;;;;;;8.70;4.07;;;14.50;99.90;;;;;;5012912;28;20450;-86
2022/08/09 00:31:41;;;;;;;8.98;3.67;;;14.60;99.90;;;;;;5027106;28;20022;-86
2022/08/09 00:34:07;;;;;;;8.80;4.07;;;14.60;99.90;;;;;;5015967;28;20474;-86
2022/08/09 00:36:33;;;;;;;8.63;3.80;;;14.40;99.90;;;;;;5019124;28;20022;-86
2022/08/09 00:38:59;;;;;;;8.05;3.70;;;14.40;99.90;;;;;;5015742;28;20033;-86
2022/08/09 00:41:24;;;;;;;12.45;4.55;;;14.30;99.90;;;;;;5010253;28;20625;-86
2022/08/09 00:43:51;;;;;;;9.00;4.10;;;14.30;99.90;;;;;;5014712;28;20057;-86
2022/08/09 00:46:17;;;;;;;11.73;4.25;;;14.30;99.90;;;;;;5018308;28;20026;-86
2022/08/09 00:48:44;;;;;;;9.45;4.22;;;14.30;99.90;;;;;;5009342;28;20057;-86
2022/08/09 00:51:10;;;;;;;9.65;3.97;;;14.30;99.90;;;;;;5014538;28;20022;-86
2022/08/09 00:53:37;;;;;;;9.63;4.25;;;14.30;99.90;;;;;;5005113;28;20030;-86
2022/08/09 00:56:07;;;;;;;9.55;3.83;;;14.20;99.90;;;;;;5007054;28;20031;-86
2022/08/09 00:58:36;;;;;;;10.65;3.88;;;14.10;99.90;;;;;;5007798;28;20037;-86
2022/08/09 01:01:10;;;;;;;9.00;3.92;;;14.10;99.90;;;;;;5016126;28;20745;-86
2022/08/09 01:03:49;;;;;;;13.98;4.10;;;14.10;99.90;;;;;;5013750;28;20106;-85
2022/08/09 01:06:26;;;;;;;8.63;3.88;;;14.10;99.90;;;;;;5009573;28;20110;-85
2022/08/09 01:09:06;;;;;;;7.97;3.75;;;14.10;99.90;;;;;;5013611;28;20108;-85
2022/08/09 01:11:50;;;;;;;8.35;4.03;;;14.00;99.90;;;;;;5017428;28;20036;-86
2022/08/09 01:14:48;;;;;;;7.88;3.90;;;14.10;99.90;;;;;;5007465;28;20026;-85
2022/08/09 01:17:24;;;;;;;10.98;3.75;;;14.10;99.90;;;;;;5008520;28;20492;-85
2022/08/09 01:20:07;;;;;;;7.97;3.75;;;14.20;99.90;;;;;;5010971;28;20030;-85
2022/08/09 01:22:38;;;;;;;10.48;4.15;;;14.20;99.90;;;;;;5016295;28;20037;-86
2022/08/09 01:25:10;;;;;;;7.85;3.78;;;14.10;99.90;;;;;;5005957;28;20029;-85
2022/08/09 01:27:37;;;;;;;7.63;3.80;;;14.00;99.90;;;;;;5030308;28;20029;-85
2022/08/09 01:30:07;;;;;;;9.90;4.18;;;13.90;99.90;;;;;;5008251;28;20072;-86
2022/08/09 01:32:44;;;;;;;12.02;4.30;;;13.90;99.90;;;;;;5013098;28;20068;-86
2022/08/09 01:35:19;;;;;;;10.60;4.05;;;13.90;99.90;;;;;;5007533;28;20037;-86
2022/08/09 01:37:47;;;;;;;9.98;4.13;;;13.80;99.90;;;;;;5012087;28;20018;-86
2022/08/09 01:40:15;;;;;;;8.98;4.20;;;13.70;99.90;;;;;;5006880;28;20053;-86
2022/08/09 01:42:42;;;;;;;9.90;4.40;;;13.60;99.90;;;;;;5007215;28;20026;-86
2022/08/09 01:45:08;;;;;;;8.65;3.78;;;13.50;99.90;;;;;;5013085;28;20708;-86
2022/08/09 01:47:35;;;;;;;10.70;4.43;;;13.40;99.90;;;;;;5004054;28;20018;-86
2022/08/09 01:50:03;;;;;;;15.43;4.60;;;13.40;99.90;;;;;;5013678;28;20067;-86
2022/08/09 01:52:29;;;;;;;12.02;4.53;;;13.30;99.90;;;;;;5013879;28;20026;-86
2022/08/09 01:54:56;;;;;;;10.23;4.32;;;13.30;99.90;;;;;;5027277;28;20073;-85
2022/08/09 01:57:36;;;;;;;9.70;4.18;;;13.30;99.90;;;;;;5007857;28;20019;-85
2022/08/09 02:00:05;;;;;;;9.93;4.43;;;13.30;99.90;;;;;;5019590;28;20032;-85
2022/08/09 02:02:33;;;;;;;13.57;4.22;;;13.30;99.90;;;;;;5008023;28;20054;-85
2022/08/09 02:05:03;;;;;;;8.88;4.25;;;13.20;99.90;;;;;;5011347;28;20048;-85
2022/08/09 02:07:29;;;;;;;10.07;4.43;;;13.20;99.90;;;;;;5011335;28;20022;-85
2022/08/09 02:10:19;;;;;;;15.38;4.65;;;13.20;99.90;;;;;;5004270;28;20022;-85
2022/08/09 02:12:47;;;;;;;10.00;4.20;;;13.20;99.90;;;;;;5013493;28;20508;-85
2022/08/09 02:15:15;;;;;;;10.70;4.32;;;13.20;99.90;;;;;;5011690;28;20285;-85
2022/08/09 02:17:44;;;;;;;9.73;3.97;;;13.20;99.90;;;;;;5021038;28;20056;-85
2022/08/09 02:20:10;;;;;;;10.05;4.40;;;13.10;99.90;;;;;;5013640;28;20061;-86
2022/08/09 02:22:42;;;;;;;9.40;4.28;;;13.00;99.90;;;;;;5010848;28;20026;-86
2022/08/09 02:25:16;;;;;;;10.85;4.55;;;13.00;99.90;;;;;;5000719;28;20029;-86
2022/08/09 02:27:50;;;;;;;8.05;4.03;;;13.00;99.90;;;;;;5012990;28;20026;-85
2022/08/09 02:30:17;;;;;;;10.48;4.85;;;13.00;99.90;;;;;;5014419;28;20022;-85
2022/08/09 02:32:44;;;;;;;10.95;5.50;;;13.00;99.90;;;;;;5017297;28;20072;-85
2022/08/09 02:35:17;;;;;;;10.90;4.50;;;13.00;99.90;;;;;;5005371;28;20026;-85
2022/08/09 02:37:46;;;;;;;9.98;4.93;;;12.90;99.90;;;;;;5023707;28;20046;-85
2022/08/09 02:40:15;;;;;;;12.30;5.20;;;12.90;99.90;;;;;;5011592;28;20435;-86
2022/08/09 02:42:43;;;;;;;10.05;5.03;;;12.80;99.90;;;;;;5024076;28;20041;-86
2022/08/09 02:45:09;;;;;;;10.35;5.10;;;12.70;99.90;;;;;;5001848;28;20382;-86
2022/08/09 02:47:38;;;;;;;12.18;5.30;;;12.70;99.90;;;;;;5023747;28;20026;-86
2022/08/09 02:50:09;;;;;;;12.95;5.10;;;12.70;99.90;;;;;;5009391;28;20044;-85
2022/08/09 02:52:48;;;;;;;13.20;4.95;;;12.70;99.90;;;;;;5004082;28;20498;-85
2022/08/09 02:55:16;;;;;;;11.93;5.72;;;12.70;99.90;;;;;;5007932;28;20394;-85
2022/08/09 02:57:44;;;;;;;10.98;5.55;;;12.60;99.90;;;;;;5001908;28;20033;-85
2022/08/09 03:00:10;;;;;;;12.32;4.95;;;12.50;99.90;;;;;;5002148;28;20019;-85
2022/08/09 03:02:43;;;;;;;12.27;5.53;;;12.50;99.90;;;;;;5011130;28;20041;-85
2022/08/09 03:05:11;;;;;;;12.23;5.30;;;12.50;99.90;;;;;;5019920;28;20506;-85
2022/08/09 03:07:38;;;;;;;12.32;5.68;;;12.40;99.90;;;;;;5001953;28;20015;-85
2022/08/09 03:10:05;;;;;;;12.68;5.43;;;12.50;99.90;;;;;;5025335;28;20033;-85
2022/08/09 03:12:34;;;;;;;10.15;5.60;;;12.50;99.90;;;;;;5013813;28;20026;-85
2022/08/09 03:15:00;;;;;;;11.85;5.43;;;12.50;99.90;;;;;;5008197;28;20034;-86
2022/08/09 03:17:28;;;;;;;10.05;5.45;;;12.50;99.90;;;;;;5010389;28;20034;-86
2022/08/09 03:19:59;;;;;;;11.98;5.68;;;12.50;99.90;;;;;;5016317;28;20061;-86
2022/08/09 03:22:26;;;;;;;14.20;5.88;;;12.50;99.90;;;;;;5012836;28;20053;-86
2022/08/09 03:24:53;;;;;;;11.15;5.68;;;12.60;99.90;;;;;;5016456;28;20026;-85
2022/08/09 03:27:19;;;;;;;12.88;5.60;;;12.50;99.90;;;;;;5017090;28;20018;-85
2022/08/09 03:29:46;;;;;;;12.18;6.00;;;12.40;99.90;;;;;;5011070;28;20072;-85
2022/08/09 03:32:13;;;;;;;12.23;5.63;;;12.40;99.90;;;;;;5010336;28;20022;-85
2022/08/09 03:34:38;;;;;;;11.98;5.97;;;12.30;99.90;;;;;;5008688;28;20037;-85
2022/08/09 03:37:04;;;;;;;12.60;6.25;;;12.30;99.90;;;;;;5011834;28;20090;-85
2022/08/09 03:39:30;;;;;;;12.73;5.93;;;12.40;99.90;;;;;;5012894;28;20080;-85
2022/08/09 03:41:56;;;;;;;12.05;6.47;;;12.30;99.90;;;;;;5007746;28;20025;-86
2022/08/09 03:44:23;;;;;;;11.45;5.78;;;12.20;99.90;;;;;;5016235;28;20120;-85
2022/08/09 03:46:49;;;;;;;14.95;6.10;;;12.10;99.90;;;;;;5009354;28;20041;-85
2022/08/09 03:49:17;;;;;;;14.95;5.55;;;12.10;99.90;;;;;;5006092;28;20022;-85
2022/08/09 03:51:45;;;;;;;12.65;5.95;;;12.10;99.90;;;;;;5012435;28;20124;-85
2022/08/09 03:54:13;;;;;;;15.40;6.40;;;12.10;99.90;;;;;;5016118;28;20026;-85
2022/08/09 03:56:39;;;;;;;16.00;6.32;;;12.00;99.90;;;;;;5010997;28;20478;-85
2022/08/09 03:59:06;;;;;;;12.95;6.00;;;12.10;99.90;;;;;;5015983;28;20026;-85
2022/08/09 04:01:33;;;;;;;13.40;6.43;;;12.10;99.90;;;;;;5009461;28;20029;-85
2022/08/09 04:04:00;;;;;;;14.75;5.93;;;12.00;99.90;;;;;;5011218;28;20054;-85
2022/08/09 04:06:26;;;;;;;13.63;6.28;;;12.00;99.90;;;;;;5006963;28;20026;-85
2022/08/09 04:08:51;;;;;;;14.13;5.68;;;11.90;99.90;;;;;;5012530;28;20026;-85
2022/08/09 04:11:17;;;;;;;10.82;5.90;;;11.90;99.90;;;;;;5007669;28;20030;-85
2022/08/09 04:13:43;;;;;;;12.95;6.50;;;11.80;99.90;;;;;;5009103;28;20061;-85
2022/08/09 04:16:08;;;;;;;11.88;5.85;;;11.80;99.90;;;;;;5013835;28;20071;-85
2022/08/09 04:18:34;;;;;;;12.35;5.90;;;11.90;99.90;;;;;;5010392;28;20034;-85
2022/08/09 04:21:00;;;;;;;12.00;6.07;;;12.00;99.90;;;;;;5009539;28;20066;-85
2022/08/09 04:23:25;;;;;;;13.48;5.70;;;11.90;99.90;;;;;;5029981;28;20117;-85
2022/08/09 04:25:53;;;;;;;15.73;6.50;;;12.00;99.90;;;;;;5011367;28;20035;-85
2022/08/09 04:28:20;;;;;;;14.95;6.50;;;11.90;99.90;;;;;;5014565;28;20454;-86
2022/08/09 04:30:45;;;;;;;12.52;6.30;;;11.90;99.90;;;;;;5010991;28;20037;-85
2022/08/09 04:33:11;;;;;;;13.95;6.50;;;11.90;99.90;;;;;;5012443;28;20486;-85
2022/08/09 04:35:39;;;;;;;16.10;6.63;;;12.00;99.90;;;;;;5011438;28;20034;-86
2022/08/09 04:38:05;;;;;;;12.30;6.15;;;12.00;99.90;;;;;;5016910;28;20030;-85
2022/08/09 04:40:48;;;;;;;11.93;6.13;;;12.10;99.90;;;;;;5019058;28;20041;-85
2022/08/09 04:43:18;;;;;;;12.52;6.10;;;12.20;99.90;;;;;;5016023;28;20124;-85
2022/08/09 04:45:45;;;;;;;13.93;6.13;;;12.30;99.90;;;;;;5016965;28;20029;-86
2022/08/09 04:48:12;;;;;;;12.43;6.05;;;12.40;99.90;;;;;;5028963;28;20169;-85
2022/08/09 04:50:39;;;;;;;13.00;6.00;;;12.50;99.90;;;;;;5013819;28;20030;-85
2022/08/09 04:53:06;;;;;;;13.45;6.40;;;12.60;99.90;;;;;;5017838;28;20148;-85
2022/08/09 04:55:32;;;;;;;12.85;6.13;;;12.60;99.90;;;;;;5030929;28;20029;-85
2022/08/09 04:57:58;;;;;;;16.77;7.35;;;12.80;99.90;;;;;;5014618;28;20033;-86
2022/08/09 05:00:23;;;;;;;12.73;6.60;;;12.90;99.90;;;;;;5020292;28;20034;-85
2022/08/09 05:02:49;;;;;;;11.80;6.53;;;13.00;99.90;;;;;;5016045;28;20120;-85
2022/08/09 05:05:15;;;;;;;13.95;6.38;;;13.10;99.90;;;;;;5013954;28;20111;-85
2022/08/09 05:07:40;;;;;;;11.77;6.07;;;13.20;99.90;;;;;;5016472;28;20033;-86
2022/08/09 05:10:07;;;;;;;12.13;6.50;;;13.20;99.90;;;;;;5014921;28;20018;-85
2022/08/09 05:12:33;;;;;;;10.45;6.13;;;13.20;99.90;;;;;;5015262;28;20027;-86
2022/08/09 05:14:59;;;;;;;11.40;5.82;;;13.30;99.90;;;;;;5016586;28;20029;-86
2022/08/09 05:17:24;;;;;;;11.60;6.18;;;13.30;99.90;;;;;;5013425;28;20026;-85
2022/08/09 05:19:50;;;;;;;14.25;6.20;;;13.40;99.90;;;;;;5017606;28;20026;-86
2022/08/09 05:22:16;;;;;;;13.00;7.07;;;13.50;99.90;;;;;;5017941;28;20113;-86
2022/08/09 05:24:41;;;;;;;17.73;6.95;;;13.60;99.90;;;;;;5007217;28;20461;-86
2022/08/09 05:27:07;;;;;;;14.45;6.50;;;13.70;99.90;;;;;;5001314;28;20029;-85
2022/08/09 05:29:33;;;;;;;13.45;7.10;;;13.80;99.90;;;;;;5007871;28;20710;-85
2022/08/09 05:32:01;;;;;;;14.18;6.53;;;14.00;99.90;;;;;;5007284;28;20401;-85
2022/08/09 05:34:29;;;;;;;14.32;6.90;;;14.10;99.90;;;;;;5013198;28;20163;-86
2022/08/09 05:36:57;;;;;;;13.32;5.85;;;14.20;99.90;;;;;;5012555;28;20180;-86
2022/08/09 05:39:23;;;;;;;13.88;6.57;;;14.40;99.90;;;;;;5010994;28;20026;-86
2022/08/09 05:41:49;;;;;;;15.27;7.03;;;14.50;99.90;;;;;;5008520;28;20030;-85
2022/08/09 05:44:16;;;;;;;13.45;5.93;;;14.60;99.90;;;;;;5009249;28;20041;-86
2022/08/09 05:46:41;;;;;;;11.88;5.72;;;14.80;99.90;;;;;;5008194;28;20026;-85
2022/08/09 05:49:08;;;;;;;16.65;6.55;;;14.90;99.90;;;;;;5010619;28;20029;-85
2022/08/09 05:51:33;;;;;;;12.40;6.88;;;15.00;99.90;;;;;;5011873;28;20045;-85
2022/08/09 05:53:59;;;;;;;13.65;6.15;;;15.10;99.90;;;;;;5015281;28;20074;-85
2022/08/09 05:56:26;;;;;;;10.93;5.90;;;15.20;99.90;;;;;;5013844;28;20033;-85
2022/08/09 05:58:56;;;;;;;12.48;5.95;;;15.40;99.90;;;;;;5009949;28;20050;-86
2022/08/09 06:01:26;;;;;;;11.18;6.45;;;15.50;99.90;;;;;;5011948;28;20053;-85
2022/08/09 06:03:53;;;;;;;;;;;15.50;99.90;;;;;;5009136;28;20069;-84
2022/08/09 06:06:18;;;;;;;11.43;5.35;;;15.60;99.90;;;;;;5014567;28;19916;-84
2022/08/09 06:08:44;;;;;;;10.93;5.82;;;15.80;99.90;;;;;;5011894;28;20109;-84
2022/08/09 06:11:10;;;;;;;15.20;5.72;;;15.80;99.90;;;;;;5013703;28;20045;-84
2022/08/09 06:13:36;;;;;;;14.75;5.78;;;15.90;99.90;;;;;;5011626;28;20116;-84
2022/08/09 06:16:02;;;;;;;10.23;5.20;;;16.00;99.90;;;;;;5010780;28;20067;-84
2022/08/09 06:18:29;;;;;;;11.27;4.93;;;16.10;99.90;;;;;;5014214;28;20509;-84
2022/08/09 06:20:55;;;;;;;14.75;6.13;;;16.20;99.90;;;;;;5017257;28;20030;-84
2022/08/09 06:23:26;;;;;;;13.43;5.10;;;16.30;99.90;;;;;;5014683;28;20061;-84
2022/08/09 06:25:51;;;;;;;;;;;16.30;99.90;;;;;;5009336;28;20026;-84
2022/08/09 06:28:18;;;;;;;12.45;5.65;;;16.40;99.90;;;;;;5011045;28;20009;-85
2022/08/09 06:30:44;;;;;;;10.65;5.32;;;16.50;99.90;;;;;;5001972;28;20043;-84
2022/08/09 06:33:09;;;;;;;12.85;5.50;;;16.60;99.90;;;;;;4997208;28;20030;-85
2022/08/09 06:35:35;;;;;;;13.30;4.90;;;16.70;99.90;;;;;;5004610;28;20030;-84
2022/08/09 06:38:01;;;;;;;12.15;5.75;;;16.80;99.90;;;;;;5020498;28;20033;-84
2022/08/09 06:40:26;;;;;;;14.48;5.57;;;16.90;99.90;;;;;;4999836;28;20053;-83
2022/08/09 06:42:56;;;;;;;10.18;5.10;;;16.90;99.90;;;;;;5004522;28;20025;-84
2022/08/09 06:45:22;;;;;;;10.55;4.95;;;17.00;99.90;;;;;;5008958;28;20022;-84
2022/08/09 06:47:48;;;;;;;11.70;5.28;;;17.10;99.90;;;;;;5002955;28;20030;-84
2022/08/09 06:50:15;;;;;;;11.45;5.60;;;17.10;99.90;;;;;;5009801;28;20026;-84
2022/08/09 06:52:44;;;;;;;12.85;5.93;;;17.20;99.90;;;;;;5005497;28;20053;-84
2022/08/09 06:55:14;;;;;;;16.05;5.10;;;17.30;99.90;;;;;;5005021;28;20030;-84
2022/08/09 06:57:40;;;;;;;12.45;5.85;;;17.40;99.90;;;;;;5003325;28;20049;-84
2022/08/09 07:00:07;;;;;;;12.68;5.97;;;17.50;99.90;;;;;;5009720;28;20026;-84
2022/08/09 07:02:32;;;;;;;9.77;4.68;;;17.50;99.90;;;;;;5010151;28;20034;-84
2022/08/09 07:04:59;;;;;;;11.63;5.38;;;17.60;99.90;;;;;;5004597;28;20050;-84
2022/08/09 07:07:24;;;;;;;13.65;5.78;;;17.70;99.90;;;;;;5014945;28;20781;-84
2022/08/09 07:09:50;;;;;;;13.10;5.03;;;17.90;99.90;;;;;;5006266;28;20056;-84
2022/08/09 07:12:16;;;;;;;9.95;5.00;;;18.00;99.90;;;;;;5000405;28;20399;-84
2022/08/09 07:14:41;;;;;;;11.13;4.78;;;18.10;99.90;;;;;;4999246;28;20030;-84
2022/08/09 07:17:07;;;;;;;11.32;5.05;;;18.20;99.90;;;;;;5003908;28;20050;-84
2022/08/09 07:19:34;;;;;;;13.13;5.15;;;18.30;99.90;;;;;;5008404;28;20034;-84
2022/08/09 07:22:00;;;;;;;10.68;4.80;;;18.50;99.90;;;;;;5000949;28;20095;-84
2022/08/09 07:24:29;;;;;;;12.30;4.50;;;18.60;99.90;;;;;;5018249;28;20090;-84
2022/08/09 07:26:55;;;;;;;11.45;5.07;;;18.70;99.90;;;;;;5003610;28;20153;-84
2022/08/09 07:29:21;;;;;;;11.88;5.13;;;18.80;99.90;;;;;;5008446;28;20115;-85
2022/08/09 07:31:47;;;;;;;13.20;5.15;;;18.80;99.90;;;;;;5005008;28;20018;-84
2022/08/09 07:34:12;;;;;;;10.07;4.75;;;18.80;99.90;;;;;;5006772;28;20029;-84
2022/08/09 07:36:39;;;;;;;9.68;4.70;;;18.90;99.90;;;;;;5002050;28;20091;-84
2022/08/09 07:39:05;;;;;;;11.68;5.03;;;19.10;99.90;;;;;;5006890;28;20474;-84
2022/08/09 07:41:31;;;;;;;14.38;4.88;;;19.20;99.90;;;;;;4996712;28;20030;-84
2022/08/09 07:43:57;;;;;;;10.85;4.15;;;19.20;99.90;;;;;;4998809;28;20038;-84
2022/08/09 07:46:23;;;;;;;11.23;5.03;;;19.30;99.90;;;;;;5000302;28;20025;-84
2022/08/09 07:48:49;;;;;;;10.85;4.03;;;19.40;99.90;;;;;;5005906;28;20574;-84
2022/08/09 07:51:15;;;;;;;10.98;4.32;;;19.50;99.90;;;;;;5011797;28;20470;-84
2022/08/09 07:53:40;;;;;;;8.63;4.30;;;19.70;99.90;;;;;;5000448;28;20076;-84
2022/08/09 07:56:06;;;;;;;10.77;4.63;;;19.80;99.90;;;;;;5006485;28;20122;-84
2022/08/09 07:58:32;;;;;;;10.13;4.47;;;19.90;99.90;;;;;;5004793;28;20034;-85
2022/08/09 08:00:57;;;;;;;9.43;4.15;;;20.00;99.90;;;;;;5012817;28;20030;-85
2022/08/09 08:03:23;;;;;;;11.25;4.65;;;20.10;99.90;;;;;;5010401;28;20062;-84
2022/08/09 08:05:49;;;;;;;11.73;4.93;;;20.20;99.90;;;;;;5013356;28;20054;-84
2022/08/09 08:08:14;;;;;;;10.27;4.63;;;20.20;99.90;;;;;;5007455;28;20029;-84
2022/08/09 08:10:40;;;;;;;10.93;3.90;;;20.30;99.90;;;;;;5004468;28;20045;-84
2022/08/09 08:13:06;;;;;;;12.43;4.63;;;20.50;99.90;;;;;;5003737;28;20029;-84
2022/08/09 08:15:31;;;;;;;10.88;4.18;;;20.60;99.90;;;;;;5007468;28;20068;-83
2022/08/09 08:17:57;;;;;;;9.73;4.43;;;20.80;99.90;;;;;;5006391;28;20030;-84
2022/08/09 08:20:25;;;;;;;11.60;4.88;;;20.90;99.90;;;;;;5003396;28;20120;-84
2022/08/09 08:22:50;;;;;;;12.70;4.60;;;20.90;99.90;;;;;;5007340;28;20026;-84
2022/08/09 08:25:17;;;;;;;10.05;4.15;;;21.10;99.90;;;;;;5006996;28;20022;-84
2022/08/09 08:27:42;;;;;;;9.15;3.42;;;21.80;99.90;;;;;;5010362;28;20501;-84
2022/08/09 08:30:10;;;;;;;9.88;3.53;;;22.60;99.90;;;;;;5007213;28;20030;-85
2022/08/09 08:32:35;;;;;;;9.10;3.83;;;23.10;99.90;;;;;;5007410;28;20027;-85
2022/08/09 08:35:01;;;;;;;9.88;3.60;;;23.10;99.90;;;;;;5021337;28;20061;-84
2022/08/09 08:37:28;;;;;;;8.73;3.75;;;23.20;99.90;;;;;;5006301;28;20038;-84
2022/08/09 08:39:53;;;;;;;9.90;3.78;;;23.70;99.90;;;;;;5013240;28;20061;-85
2022/08/09 08:42:20;;;;;;;10.02;3.70;;;23.60;99.90;;;;;;5004632;28;20026;-85
2022/08/09 08:44:51;;;;;;;11.75;3.95;;;24.30;99.90;;;;;;5003169;28;20019;-84
2022/08/09 08:47:16;;;;;;;9.77;3.20;;;24.30;99.90;;;;;;5002449;28;20487;-85
2022/08/09 08:49:42;;;;;;;9.00;3.50;;;24.10;99.90;;;;;;5004396;28;20060;-85
2022/08/09 08:52:09;;;;;;;8.38;3.20;;;24.60;99.90;;;;;;5004548;28;20049;-85
2022/08/09 08:54:34;;;;;;;15.38;3.85;;;24.90;99.40;;;;;;5014323;28;20137;-84
2022/08/09 08:57:02;;;;;;;10.98;3.50;;;25.00;98.70;;;;;;5028091;28;20049;-85
2022/08/09 08:59:28;;;;;;;8.90;3.60;;;24.90;99.10;;;;;;5023131;28;20021;-85
2022/08/09 09:01:54;;;;;;;7.07;2.95;;;24.20;99.70;;;;;;5006646;28;20066;-84
2022/08/09 09:04:25;;;;;;;11.25;3.80;;;24.70;99.70;;;;;;5001896;28;20038;-85
2022/08/09 09:06:53;;;;;;;12.35;3.20;;;25.10;98.00;;;;;;5004627;28;20032;-84
2022/08/09 09:09:21;;;;;;;13.25;3.50;;;24.70;98.60;;;;;;5005751;28;20558;-85
2022/08/09 09:11:47;;;;;;;8.75;3.58;;;25.00;98.10;;;;;;5004810;28;20086;-85
2022/08/09 09:14:17;;;;;;;10.20;3.90;;;25.60;97.60;;;;;;5008258;28;20113;-85
2022/08/09 09:16:43;;;;;;;10.38;4.00;;;25.40;97.10;;;;;;5004873;28;20122;-85
2022/08/09 09:19:11;;;;;;;10.88;3.92;;;25.30;97.50;;;;;;4998430;28;20081;-85
2022/08/09 09:21:54;;;;;;;8.23;3.28;;;25.20;97.10;;;;;;5008621;28;20475;-85
2022/08/09 09:24:36;;;;;;;7.40;3.40;;;25.40;97.60;;;;;;5008720;28;20386;-85
2022/08/09 09:27:03;;;;;;;9.43;3.35;;;25.60;96.80;;;;;;5003721;28;20014;-85
2022/08/09 09:29:40;;;;;;;11.20;2.95;;;25.20;96.20;;;;;;5017831;28;20030;-85
2022/08/09 09:32:07;;;;;;;9.40;2.95;;;26.20;95.60;;;;;;5002794;28;20124;-85
2022/08/09 09:34:32;;;;;;;8.07;2.80;;;27.10;92.80;;;;;;5005502;28;20037;-85
2022/08/09 09:37:00;;;;;;;9.43;3.60;;;27.50;91.60;;;;;;5003446;28;20022;-85
2022/08/09 09:39:28;;;;;;;8.20;2.47;;;27.10;91.20;;;;;;5010575;28;20040;-85
2022/08/09 09:41:54;;;;;;;7.65;2.85;;;27.00;92.00;;;;;;5002951;28;20109;-85
2022/08/09 09:44:31;;;;;;;8.23;3.20;;;27.50;91.70;;;;;;5001915;28;20328;-85
2022/08/09 09:47:04;;;;;;;7.80;3.30;;;27.20;92.00;;;;;;5006643;28;20455;-85
2022/08/09 09:49:29;;;;;;;12.20;3.35;;;27.40;91.70;;;;;;5017192;28;20062;-85
2022/08/09 09:52:10;;;;;;;9.88;2.92;;;27.50;90.80;;;;;;4998475;28;20033;-85
2022/08/09 09:54:46;;;;;;;8.55;3.20;;;27.80;91.10;;;;;;5002950;28;20065;-85
2022/08/09 09:57:21;;;;;;;7.85;3.25;;;27.50;90.40;;;;;;5009551;28;20148;-85
2022/08/09 09:59:51;;;;;;;9.20;3.13;;;27.70;89.60;;;;;;5005841;28;20032;-85
2022/08/09 10:02:17;;;;;;;8.77;3.13;;;27.80;90.20;;;;;;5013704;28;20034;-85
2022/08/09 10:04:45;;;;;;;12.93;3.70;;;28.50;89.50;;;;;;5000630;28;20180;-85
2022/08/09 10:07:25;;;;;;;8.20;3.22;;;28.60;87.30;;;;;;5000572;28;20045;-85
2022/08/09 10:09:54;;;;;;;8.15;3.42;;;27.90;86.20;;;;;;4998179;28;20034;-85
2022/08/09 10:12:39;;;;;;;7.72;2.95;;;26.80;87.20;;;;;;5007731;28;20544;-85
2022/08/09 10:15:15;;;;;;;7.45;2.83;;;27.20;88.40;;;;;;5001695;28;20417;-84
2022/08/09 10:17:48;;;;;;;8.90;3.10;;;27.40;87.70;;;;;;5008307;28;20125;-85
2022/08/09 10:20:18;;;;;;;9.45;3.42;;;28.10;86.20;;;;;;5008393;28;20394;-86
2022/08/09 10:22:46;;;;;;;7.05;3.17;;;28.90;84.30;;;;;;5004767;28;20029;-85
2022/08/09 10:25:12;;;;;;;9.73;2.95;;;28.60;81.50;;;;;;5001047;28;20037;-85
2022/08/09 10:27:38;;;;;;;8.85;2.90;;;29.20;82.50;;;;;;4998006;28;20029;-85
2022/08/09 10:30:06;;;;;;;8.10;2.58;;;29.50;80.90;;;;;;5011104;28;20108;-86
2022/08/09 10:32:35;;;;;;;8.35;3.50;;;29.80;81.30;;;;;;5009041;28;20026;-85
2022/08/09 10:35:01;;;;;;;7.82;2.60;;;28.80;79.60;;;;;;5008051;28;20066;-85
2022/08/09 10:37:27;;;;;;;10.13;3.00;;;29.80;79.50;;;;;;5005513;28;20030;-85
2022/08/09 10:39:53;;;;;;;8.00;3.25;;;29.90;77.90;;;;;;5020862;28;20109;-85
2022/08/09 10:42:21;;;;;;;7.63;3.03;;;28.90;79.00;;;;;;5001990;28;20023;-85
2022/08/09 10:44:58;;;;;;;9.07;2.60;;;29.00;80.40;;;;;;5003941;28;20045;-86
2022/08/09 10:47:27;;;;;;;7.43;2.58;;;30.50;78.40;;;;;;5001852;28;20033;-85
2022/08/09 10:50:18;;;;;;;7.40;2.80;;;31.00;76.10;;;;;;5005138;28;20021;-85
2022/08/09 10:53:05;;;;;;;7.30;2.55;;;31.40;74.30;;;;;;5001532;28;20025;-85
2022/08/09 10:55:32;;;;;;;8.10;2.90;;;31.30;74.80;;;;;;5014357;28;20102;-85
2022/08/09 10:57:58;;;;;;;7.20;3.20;;;30.20;74.20;;;;;;5007093;28;20022;-85
2022/08/09 11:00:31;;;;;;;9.40;3.22;;;30.00;73.80;;;;;;4999311;28;20478;-85
2022/08/09 11:02:57;;;;;;;6.40;2.50;;;29.90;74.50;;;;;;5002239;28;20474;-85
2022/08/09 11:05:24;;;;;;;8.88;3.10;;;30.50;74.50;;;;;;5004264;28;20046;-85
2022/08/09 11:07:50;;;;;;;7.43;3.58;;;31.10;73.50;;;;;;5004842;28;20018;-85
2022/08/09 11:10:42;;;;;;;7.50;3.35;;;30.60;73.10;;;;;;5000380;28;20057;-85
2022/08/09 11:13:18;;;;;;;10.25;3.20;;;29.90;73.10;;;;;;5008118;28;20041;-85
2022/08/09 11:15:44;;;;;;;7.68;3.20;;;30.60;73.10;;;;;;5004549;28;20034;-85
2022/08/09 11:18:11;;;;;;;9.38;2.70;;;31.60;71.30;;;;;;5000647;28;20026;-85
2022/08/09 11:20:46;;;;;;;6.65;2.80;;;32.00;71.70;;;;;;4996765;28;20046;-85
2022/08/09 11:23:14;;;;;;;6.85;2.70;;;30.90;70.70;;;;;;4998044;28;20061;-86
2022/08/09 11:25:44;;;;;;;7.35;2.78;;;31.70;71.10;;;;;;5008013;28;20053;-85
2022/08/09 11:28:30;;;;;;;11.07;3.40;;;31.70;69.80;;;;;;5006381;28;20022;-86
2022/08/09 11:30:56;;;;;;;10.82;2.65;;;31.80;68.80;;;;;;5008423;28;20049;-85
2022/08/09 11:33:37;;;;;;;7.80;3.03;;;31.90;69.90;;;;;;5006263;28;20587;-85
2022/08/09 11:36:03;;;;;;;8.65;3.05;;;31.90;68.70;;;;;;4999990;28;20035;-85
2022/08/09 11:38:34;;;;;;;6.28;2.53;;;31.10;69.50;;;;;;5013801;28;20088;-85
2022/08/09 11:41:10;;;;;;;8.13;2.53;;;31.10;71.10;;;;;;5020531;28;20049;-85
2022/08/09 11:43:40;;;;;;;6.78;2.92;;;32.40;69.10;;;;;;5028107;28;20022;-85
2022/08/09 11:46:06;;;;;;;9.13;3.10;;;32.20;68.60;;;;;;5009121;28;20033;-85
2022/08/09 11:48:45;;;;;;;6.97;2.88;;;31.60;68.40;;;;;;5013278;28;20026;-85
2022/08/09 11:51:11;;;;;;;6.50;2.83;;;32.10;67.90;;;;;;5008813;28;20074;-85
2022/08/09 11:53:38;;;;;;;9.85;2.70;;;33.60;65.80;;;;;;5014140;28;20108;-85
2022/08/09 11:56:13;;;;;;;9.93;3.13;;;34.10;66.00;;;;;;5009324;28;20026;-86
2022/08/09 11:58:41;;;;;;;7.75;2.65;;;33.40;65.80;;;;;;5003797;28;20048;-85
2022/08/09 12:01:08;;;;;;;7.93;2.90;;;32.20;67.00;;;;;;5007852;28;20033;-85
2022/08/09 12:03:34;;;;;;;6.40;2.72;;;32.80;67.40;;;;;;5007330;28;20049;-85
2022/08/09 12:06:08;;;;;;;11.60;2.97;;;33.30;65.60;;;;;;5005040;28;20065;-85
2022/08/09 12:08:34;;;;;;;9.25;2.80;;;33.30;65.70;;;;;;5007825;28;20030;-85
2022/08/09 12:11:00;;;;;;;7.97;2.95;;;34.10;64.70;;;;;;5012089;28;20053;-85
2022/08/09 12:13:38;;;;;;;9.63;3.10;;;34.80;64.60;;;;;;5007038;28;20529;-85
2022/08/09 12:16:10;;;;;;;11.35;3.20;;;34.00;62.40;;;;;;5006596;28;20027;-86
2022/08/09 12:18:38;;;;;;;10.35;3.05;;;33.60;63.50;;;;;;4998830;28;20525;-85
2022/08/09 12:21:07;;;;;;;7.32;2.83;;;33.90;63.70;;;;;;5003760;28;20510;-85
2022/08/09 12:23:40;;;;;;;7.30;2.77;;;33.30;63.60;;;;;;5004096;28;20449;-85
2022/08/09 12:26:05;;;;;;;8.30;2.63;;;33.80;63.10;;;;;;5008062;28;20363;-85
2022/08/09 12:28:32;;;;;;;7.82;3.35;;;33.00;63.80;;;;;;5002852;28;20104;-85
2022/08/09 12:30:57;;;;;;;6.57;2.90;;;32.90;63.90;;;;;;5007307;28;20022;-85
2022/08/09 12:33:24;;;;;;;7.85;3.13;;;32.00;65.10;;;;;;5016233;28;20086;-85
2022/08/09 12:36:02;;;;;;;10.57;3.03;;;32.10;64.30;;;;;;5006509;28;20093;-86
2022/08/09 12:38:29;;;;;;;6.07;2.70;;;33.80;63.30;;;;;;5024165;28;20030;-85
2022/08/09 12:40:57;;;;;;;10.48;2.60;;;34.20;63.00;;;;;;5000284;28;20049;-85
2022/08/09 12:43:28;;;;;;;8.60;2.80;;;33.90;62.00;;;;;;5010470;28;20462;-86
2022/08/09 12:45:56;;;;;;;6.68;2.65;;;34.90;62.20;;;;;;5014759;28;20037;-85